Time;durP1;ratioP1;P1;durP2;ratioP2;P2;SDS_P1;SDS_P2;PMS_P1;PMS_P2;Temp;Humidity;BMP_temperature;BMP_pressure;BME280_temperature;BME280_humidity;BME280_pressure;Samples;Min_cycle;Max_cycle;Signal;HPM_P1;HPM_P2
2022/03/06 00:01:16;;;;;;;12.83;8.23;;;3.30;59.70;;;;;;4999801;28;20553;-42
2022/03/06 00:03:44;;;;;;;12.07;8.00;;;3.30;59.90;;;;;;5019083;28;20474;-41
2022/03/06 00:06:13;;;;;;;12.47;8.13;;;3.30;59.80;;;;;;5017778;28;20887;-41
2022/03/06 00:08:41;;;;;;;15.30;8.50;;;3.30;60.10;;;;;;5017323;28;20487;-41
2022/03/06 00:11:08;;;;;;;13.73;8.47;;;3.30;59.70;;;;;;5027574;28;20459;-41
2022/03/06 00:13:35;;;;;;;13.13;8.67;;;3.20;59.90;;;;;;5018724;28;20854;-41
2022/03/06 00:16:03;;;;;;;12.03;8.30;;;3.10;60.30;;;;;;5020024;28;20458;-41
2022/03/06 00:18:30;;;;;;;12.50;8.30;;;3.10;60.80;;;;;;5017965;28;20560;-41
2022/03/06 00:20:59;;;;;;;13.30;9.10;;;3.10;60.70;;;;;;5016996;28;20455;-41
2022/03/06 00:23:26;;;;;;;11.47;8.10;;;3.10;60.50;;;;;;5018718;28;20481;-41
2022/03/06 00:25:53;;;;;;;8.80;7.03;;;3.00;60.50;;;;;;5002986;28;20540;-41
2022/03/06 00:28:19;;;;;;;9.60;7.70;;;2.90;60.60;;;;;;5015260;28;20474;-41
2022/03/06 00:30:47;;;;;;;11.73;8.37;;;2.90;61.20;;;;;;5017056;28;20461;-41
2022/03/06 00:33:14;;;;;;;13.33;9.13;;;2.80;61.70;;;;;;5002158;28;20459;-41
2022/03/06 00:35:41;;;;;;;9.93;7.53;;;2.80;61.60;;;;;;5017402;28;20456;-41
2022/03/06 00:38:08;;;;;;;10.20;8.70;;;2.70;61.80;;;;;;5019059;28;20470;-41
2022/03/06 00:40:36;;;;;;;12.43;8.10;;;2.70;62.00;;;;;;5018522;28;20525;-41
2022/03/06 00:43:03;;;;;;;9.83;8.73;;;2.60;62.10;;;;;;5017232;28;20469;-41
2022/03/06 00:45:30;;;;;;;8.73;7.17;;;2.60;62.20;;;;;;4999396;28;20547;-41
2022/03/06 00:47:57;;;;;;;15.90;8.10;;;2.50;62.30;;;;;;5016738;28;20889;-42
2022/03/06 00:50:24;;;;;;;11.13;9.37;;;2.50;62.70;;;;;;5017632;28;20492;-41
2022/03/06 00:52:52;;;;;;;14.50;8.63;;;2.40;62.70;;;;;;4996008;28;20460;-41
2022/03/06 00:55:19;;;;;;;10.07;7.97;;;2.40;63.00;;;;;;5018207;28;20455;-41
2022/03/06 00:57:46;;;;;;;11.87;8.50;;;2.40;63.10;;;;;;5014471;28;22495;-41
2022/03/06 01:00:13;;;;;;;14.30;8.40;;;2.30;63.20;;;;;;5017871;28;20463;-42
2022/03/06 01:02:40;;;;;;;10.70;8.17;;;2.30;63.20;;;;;;5021084;28;20475;-41
2022/03/06 01:05:07;;;;;;;10.00;8.93;;;2.30;63.40;;;;;;5017010;28;21184;-41
2022/03/06 01:07:34;;;;;;;11.20;8.53;;;2.30;63.20;;;;;;5021420;28;20854;-41
2022/03/06 01:10:01;;;;;;;11.90;8.47;;;2.20;63.30;;;;;;5020915;28;20450;-41
2022/03/06 01:12:28;;;;;;;9.80;6.93;;;2.20;63.20;;;;;;5016262;28;20536;-41
2022/03/06 01:14:54;;;;;;;11.97;7.90;;;2.20;63.60;;;;;;5015757;28;20838;-41
2022/03/06 01:17:21;;;;;;;11.57;8.47;;;2.20;63.60;;;;;;5027122;28;20465;-41
2022/03/06 01:19:49;;;;;;;14.30;9.00;;;2.10;63.50;;;;;;5014938;28;20456;-41
2022/03/06 01:22:16;;;;;;;13.60;9.30;;;2.10;63.70;;;;;;5019136;28;20463;-42
2022/03/06 01:24:43;;;;;;;14.90;9.53;;;2.10;63.90;;;;;;5018512;28;20902;-42
2022/03/06 01:27:10;;;;;;;13.03;9.77;;;2.10;64.00;;;;;;5018307;28;20496;-42
2022/03/06 01:29:37;;;;;;;12.90;9.30;;;2.10;64.20;;;;;;5018157;28;20586;-42
2022/03/06 01:32:04;;;;;;;12.50;9.33;;;2.10;64.20;;;;;;5029737;28;20945;-42
2022/03/06 01:34:31;;;;;;;15.00;9.33;;;2.10;64.10;;;;;;5016370;28;20872;-42
2022/03/06 01:36:58;;;;;;;11.63;8.50;;;2.10;64.10;;;;;;5017746;28;20494;-42
2022/03/06 01:39:24;;;;;;;17.20;10.70;;;2.10;64.30;;;;;;5015181;28;20471;-42
2022/03/06 01:41:51;;;;;;;13.37;7.93;;;2.00;64.10;;;;;;5016198;28;20465;-42
2022/03/06 01:44:18;;;;;;;11.27;7.97;;;2.00;64.20;;;;;;5016265;28;20458;-42
2022/03/06 01:46:46;;;;;;;11.43;7.13;;;2.00;64.20;;;;;;5013355;28;20487;-42
2022/03/06 01:49:14;;;;;;;13.90;9.20;;;2.10;64.00;;;;;;5016331;28;20575;-42
2022/03/06 01:51:42;;;;;;;11.60;8.03;;;2.10;63.80;;;;;;4998684;28;20471;-42
2022/03/06 01:54:09;;;;;;;12.50;8.70;;;2.10;63.70;;;;;;5015704;28;20888;-42
2022/03/06 01:56:36;;;;;;;11.00;8.20;;;2.10;63.70;;;;;;5016308;28;20967;-42
2022/03/06 01:59:03;;;;;;;11.80;7.00;;;2.10;63.60;;;;;;5001827;28;20466;-42
2022/03/06 02:01:31;;;;;;;13.67;9.10;;;2.10;63.70;;;;;;5000805;28;20475;-42
2022/03/06 02:03:59;;;;;;;12.13;8.50;;;2.10;63.80;;;;;;5013852;28;20991;-42
2022/03/06 02:06:26;;;;;;;10.90;7.70;;;2.10;63.50;;;;;;5018723;28;21155;-42
2022/03/06 02:08:53;;;;;;;9.00;7.40;;;2.10;63.40;;;;;;5016760;28;20472;-42
2022/03/06 02:11:25;;;;;;;10.97;7.47;;;2.00;63.40;;;;;;5021186;28;20955;-42
2022/03/06 02:13:52;;;;;;;10.90;7.87;;;2.00;63.50;;;;;;5019332;28;20545;-42
2022/03/06 02:16:19;;;;;;;10.10;7.10;;;2.00;63.50;;;;;;5011112;28;22345;-42
2022/03/06 02:18:46;;;;;;;14.50;7.93;;;1.90;63.60;;;;;;5019504;28;20513;-42
2022/03/06 02:21:14;;;;;;;10.30;8.00;;;2.10;63.90;;;;;;5028090;28;20870;-41
2022/03/06 02:23:41;;;;;;;11.53;8.07;;;2.00;63.50;;;;;;5016509;28;20492;-42
2022/03/06 02:26:09;;;;;;;9.50;8.50;;;2.00;63.50;;;;;;5020702;28;21613;-42
2022/03/06 02:28:36;;;;;;;10.80;7.47;;;2.00;63.60;;;;;;5016208;28;20463;-42
2022/03/06 02:31:03;;;;;;;12.83;8.63;;;1.90;63.60;;;;;;5001617;28;20550;-42
2022/03/06 02:33:30;;;;;;;10.07;8.70;;;1.90;63.90;;;;;;5003509;28;20463;-42
2022/03/06 02:35:57;;;;;;;12.37;7.97;;;1.90;63.90;;;;;;5029617;28;20462;-42
2022/03/06 02:38:23;;;;;;;9.83;7.83;;;1.90;63.90;;;;;;5018672;28;20490;-42
2022/03/06 02:40:53;;;;;;;12.40;8.63;;;1.80;64.00;;;;;;5020083;28;20459;-42
2022/03/06 02:43:20;;;;;;;11.23;8.30;;;1.80;64.30;;;;;;5002490;28;20464;-42
2022/03/06 02:45:47;;;;;;;13.03;7.70;;;1.80;64.80;;;;;;5022511;28;20451;-41
2022/03/06 02:48:14;;;;;;;11.67;8.67;;;1.80;64.40;;;;;;5017891;28;20491;-42
2022/03/06 02:50:43;;;;;;;11.80;8.40;;;1.90;64.40;;;;;;5019252;28;20566;-40
2022/03/06 02:53:11;;;;;;;12.90;9.00;;;1.80;64.20;;;;;;5019952;28;20487;-41
2022/03/06 02:55:38;;;;;;;10.13;8.10;;;1.80;64.20;;;;;;5020437;28;20444;-41
2022/03/06 02:58:05;;;;;;;14.83;9.03;;;1.70;64.10;;;;;;5020058;28;21006;-41
2022/03/06 03:00:32;;;;;;;14.43;8.57;;;1.70;64.20;;;;;;5016382;28;20462;-41
2022/03/06 03:02:59;;;;;;;10.37;7.43;;;1.70;64.40;;;;;;5017761;28;20471;-41
2022/03/06 03:05:26;;;;;;;12.27;8.87;;;1.70;64.70;;;;;;5020569;28;20464;-41
2022/03/06 03:07:53;;;;;;;12.00;8.77;;;1.70;64.80;;;;;;5017608;28;20482;-41
2022/03/06 03:10:23;;;;;;;11.63;7.93;;;1.60;64.70;;;;;;5019190;28;21345;-42
2022/03/06 03:12:51;;;;;;;13.43;7.83;;;1.70;64.40;;;;;;5021053;28;20559;-42
2022/03/06 03:15:18;;;;;;;13.27;7.83;;;1.70;64.40;;;;;;5016587;28;20456;-42
2022/03/06 03:17:45;;;;;;;14.47;7.87;;;1.70;64.80;;;;;;5018655;28;20477;-42
2022/03/06 03:20:14;;;;;;;10.17;7.50;;;1.70;64.80;;;;;;5019362;28;20501;-42
2022/03/06 03:22:41;;;;;;;11.77;6.70;;;1.60;65.00;;;;;;5018845;28;20472;-42
2022/03/06 03:25:08;;;;;;;10.10;7.03;;;1.60;65.10;;;;;;5016713;28;20488;-42
2022/03/06 03:27:36;;;;;;;11.27;7.33;;;1.60;64.90;;;;;;5028884;28;20492;-41
2022/03/06 03:30:05;;;;;;;12.70;7.30;;;1.60;64.90;;;;;;5004682;28;20606;-41
2022/03/06 03:32:32;;;;;;;10.97;8.03;;;1.50;64.90;;;;;;5014326;28;20462;-41
2022/03/06 03:34:59;;;;;;;14.70;8.00;;;1.60;65.10;;;;;;5019938;28;20460;-42
2022/03/06 03:37:26;;;;;;;9.30;6.97;;;1.60;65.00;;;;;;5015932;28;20809;-42
2022/03/06 03:39:52;;;;;;;13.50;7.10;;;1.50;65.00;;;;;;5018894;28;20448;-42
2022/03/06 03:42:19;;;;;;;11.70;8.00;;;1.50;65.00;;;;;;5004891;28;20494;-42
2022/03/06 03:44:46;;;;;;;9.87;7.03;;;1.40;65.20;;;;;;5019367;28;20463;-40
2022/03/06 03:47:13;;;;;;;13.10;8.10;;;1.50;65.40;;;;;;5024362;28;20491;-42
2022/03/06 03:49:40;;;;;;;11.90;7.70;;;1.50;65.60;;;;;;5021840;28;20447;-41
2022/03/06 03:52:06;;;;;;;10.80;7.60;;;1.50;65.60;;;;;;5019587;28;20464;-43
2022/03/06 03:54:33;;;;;;;12.70;7.30;;;1.60;65.40;;;;;;5017136;28;20468;-42
2022/03/06 03:57:00;;;;;;;10.70;7.50;;;1.50;65.40;;;;;;5015442;28;20459;-42
2022/03/06 03:59:27;;;;;;;13.10;7.07;;;1.50;65.40;;;;;;5018334;28;20498;-42
2022/03/06 04:01:53;;;;;;;11.43;6.83;;;1.50;65.60;;;;;;5018796;28;20468;-42
2022/03/06 04:04:21;;;;;;;12.00;7.50;;;1.60;65.70;;;;;;4999828;28;20555;-42
2022/03/06 04:06:47;;;;;;;12.30;7.47;;;1.60;65.80;;;;;;5019715;28;21784;-42
2022/03/06 04:09:14;;;;;;;10.27;7.63;;;1.60;65.50;;;;;;5005608;28;20455;-42
2022/03/06 04:11:41;;;;;;;7.30;5.50;;;1.60;65.30;;;;;;5016679;28;20463;-42
2022/03/06 04:14:08;;;;;;;8.60;7.27;;;1.60;65.50;;;;;;5019472;28;21040;-42
2022/03/06 04:16:34;;;;;;;7.57;6.10;;;1.60;65.40;;;;;;5020994;28;20472;-42
2022/03/06 04:19:02;;;;;;;12.33;8.33;;;1.60;65.10;;;;;;5019411;28;20491;-42
2022/03/06 04:21:28;;;;;;;12.40;7.30;;;1.70;65.20;;;;;;5015289;28;20458;-42
2022/03/06 04:23:55;;;;;;;11.13;8.50;;;1.70;65.00;;;;;;5013286;28;20976;-42
2022/03/06 04:26:22;;;;;;;9.30;6.93;;;1.80;64.80;;;;;;5018284;28;20451;-42
2022/03/06 04:28:48;;;;;;;10.50;7.60;;;1.80;64.80;;;;;;5015242;28;20464;-42
2022/03/06 04:31:15;;;;;;;10.93;8.30;;;1.80;64.80;;;;;;5019950;28;20931;-42
2022/03/06 04:33:42;;;;;;;10.30;6.80;;;1.80;65.00;;;;;;4999847;28;20902;-42
2022/03/06 04:36:10;;;;;;;13.20;8.07;;;1.90;64.70;;;;;;5018706;28;20464;-42
2022/03/06 04:38:38;;;;;;;10.33;7.30;;;1.90;64.70;;;;;;5020322;28;20876;-42
2022/03/06 04:41:05;;;;;;;11.03;7.10;;;2.00;64.20;;;;;;5002346;28;21075;-42
2022/03/06 04:43:31;;;;;;;9.90;6.27;;;2.00;64.00;;;;;;5019615;28;20472;-42
2022/03/06 04:45:58;;;;;;;7.90;5.80;;;2.00;63.30;;;;;;5014786;28;20471;-42
2022/03/06 04:48:25;;;;;;;9.73;5.63;;;2.00;63.20;;;;;;5014128;28;20889;-42
2022/03/06 04:50:52;;;;;;;11.30;5.90;;;2.10;63.10;;;;;;5013346;28;20458;-42
2022/03/06 04:53:19;;;;;;;8.50;5.37;;;2.10;62.80;;;;;;5003575;28;20458;-42
2022/03/06 04:55:46;;;;;;;8.80;5.90;;;2.10;62.80;;;;;;5019199;28;20517;-42
2022/03/06 04:58:12;;;;;;;4.70;4.23;;;2.10;62.60;;;;;;5020009;28;20468;-42
2022/03/06 05:00:39;;;;;;;6.63;4.73;;;2.20;62.10;;;;;;5018891;28;20463;-43
2022/03/06 05:03:06;;;;;;;6.67;5.60;;;2.20;61.80;;;;;;5009905;28;21186;-43
2022/03/06 05:05:33;;;;;;;9.20;5.70;;;2.20;60.90;;;;;;5014901;28;20463;-42
2022/03/06 05:08:00;;;;;;;8.93;5.67;;;2.30;60.30;;;;;;5016699;28;20497;-42
2022/03/06 05:10:26;;;;;;;9.67;5.53;;;2.30;60.30;;;;;;5016405;28;20456;-41
2022/03/06 05:12:53;;;;;;;6.00;4.27;;;2.40;59.80;;;;;;4999938;28;20591;-43
2022/03/06 05:15:20;;;;;;;7.50;5.37;;;2.30;60.00;;;;;;5013578;28;20499;-43
2022/03/06 05:17:47;;;;;;;7.07;5.33;;;2.30;59.90;;;;;;5014580;28;20471;-43
2022/03/06 05:20:14;;;;;;;6.50;4.70;;;2.40;59.70;;;;;;5019396;28;20494;-43
2022/03/06 05:22:41;;;;;;;5.83;4.70;;;2.40;59.40;;;;;;5014750;28;20491;-43
2022/03/06 05:25:09;;;;;;;6.97;5.57;;;2.40;59.50;;;;;;5014681;28;20849;-43
2022/03/06 05:27:37;;;;;;;10.20;6.00;;;2.40;59.50;;;;;;5018734;28;20491;-43
2022/03/06 05:30:06;;;;;;;8.03;6.10;;;2.40;58.70;;;;;;5001950;28;20948;-43
2022/03/06 05:32:33;;;;;;;8.03;5.23;;;2.50;58.20;;;;;;5017209;28;20467;-43
2022/03/06 05:34:59;;;;;;;8.70;6.10;;;2.50;58.40;;;;;;5018427;28;20460;-43
2022/03/06 05:37:26;;;;;;;8.07;5.57;;;2.50;58.20;;;;;;5032494;28;20456;-43
2022/03/06 05:39:53;;;;;;;6.80;4.90;;;2.50;58.10;;;;;;5002955;28;20467;-43
2022/03/06 05:42:20;;;;;;;8.07;5.80;;;2.50;58.10;;;;;;5015671;28;20995;-42
2022/03/06 05:44:47;;;;;;;6.10;5.30;;;2.50;57.60;;;;;;5017924;28;20458;-42
2022/03/06 05:47:14;;;;;;;9.30;4.73;;;2.60;57.30;;;;;;5020640;28;20486;-43
2022/03/06 05:49:40;;;;;;;7.13;5.47;;;2.60;57.40;;;;;;5022189;28;20459;-43
2022/03/06 05:52:07;;;;;;;6.87;5.13;;;2.50;57.60;;;;;;5020069;28;20793;-43
2022/03/06 05:54:34;;;;;;;5.67;4.60;;;2.50;57.00;;;;;;5023217;28;20436;-42
2022/03/06 05:57:01;;;;;;;7.77;5.50;;;2.50;57.60;;;;;;5023689;28;20452;-42
2022/03/06 05:59:28;;;;;;;6.60;5.17;;;2.50;57.80;;;;;;5018812;28;20509;-42
2022/03/06 06:01:55;;;;;;;9.03;5.20;;;2.50;57.70;;;;;;5021002;28;20463;-42
2022/03/06 06:04:21;;;;;;;11.30;5.33;;;2.50;57.60;;;;;;5019421;28;20448;-42
2022/03/06 06:06:48;;;;;;;9.30;5.73;;;2.60;57.00;;;;;;5020716;28;20842;-42
2022/03/06 06:09:15;;;;;;;6.07;5.47;;;2.60;56.80;;;;;;5011907;28;20514;-43
2022/03/06 06:11:42;;;;;;;8.30;5.80;;;2.60;56.70;;;;;;5020099;28;20815;-43
2022/03/06 06:14:10;;;;;;;8.47;4.77;;;2.60;56.20;;;;;;5023200;28;20463;-43
2022/03/06 06:16:37;;;;;;;4.23;3.83;;;2.60;56.20;;;;;;5021525;28;21232;-42
2022/03/06 06:19:04;;;;;;;5.77;4.87;;;2.70;56.00;;;;;;5036361;28;20808;-43
2022/03/06 06:21:30;;;;;;;9.90;4.90;;;2.70;56.30;;;;;;5023107;28;20452;-43
2022/03/06 06:23:57;;;;;;;6.70;5.60;;;2.70;56.30;;;;;;5016912;28;20795;-43
2022/03/06 06:26:24;;;;;;;8.70;5.73;;;2.80;56.00;;;;;;5006562;28;20458;-43
2022/03/06 06:28:56;;;;;;;9.17;5.20;;;2.80;55.50;;;;;;5038449;28;20931;-43
2022/03/06 06:31:24;;;;;;;7.20;5.20;;;2.80;55.20;;;;;;5010640;28;20458;-42
2022/03/06 06:33:51;;;;;;;7.80;5.47;;;2.80;54.70;;;;;;5018394;28;20444;-43
2022/03/06 06:36:18;;;;;;;6.20;5.30;;;2.90;54.50;;;;;;5018103;28;20452;-43
2022/03/06 06:38:44;;;;;;;9.10;5.77;;;2.90;54.30;;;;;;5018788;28;20468;-43
2022/03/06 06:41:11;;;;;;;5.43;4.67;;;3.00;54.70;;;;;;5016820;28;21040;-43
2022/03/06 06:43:38;;;;;;;8.37;5.60;;;3.00;54.70;;;;;;5015935;28;20554;-43
2022/03/06 06:46:05;;;;;;;6.20;5.10;;;3.10;55.30;;;;;;5033522;28;20824;-43
2022/03/06 06:48:32;;;;;;;6.43;5.50;;;3.10;55.00;;;;;;5002668;28;20496;-43
2022/03/06 06:50:59;;;;;;;7.67;6.53;;;3.10;55.10;;;;;;5018365;28;20548;-43
2022/03/06 06:53:26;;;;;;;7.30;4.90;;;3.10;54.70;;;;;;5018622;28;20619;-43
2022/03/06 06:55:52;;;;;;;9.83;6.57;;;3.10;54.30;;;;;;5035734;28;20474;-43
2022/03/06 06:58:19;;;;;;;6.20;5.60;;;3.20;54.40;;;;;;5020834;28;20463;-43
2022/03/06 07:00:46;;;;;;;6.77;4.60;;;3.30;54.80;;;;;;5019889;28;20807;-43
2022/03/06 07:03:13;;;;;;;8.93;6.20;;;3.30;55.30;;;;;;5010174;28;20460;-43
2022/03/06 07:05:40;;;;;;;7.50;6.00;;;3.40;55.40;;;;;;5008261;28;20476;-43
2022/03/06 07:08:06;;;;;;;6.40;5.30;;;3.40;54.70;;;;;;5008281;28;20487;-43
2022/03/06 07:10:33;;;;;;;8.67;6.57;;;3.40;53.80;;;;;;5007394;28;20466;-43
2022/03/06 07:13:00;;;;;;;7.30;5.80;;;3.50;53.50;;;;;;5023164;28;20460;-43
2022/03/06 07:15:29;;;;;;;8.87;7.20;;;3.60;53.10;;;;;;5018720;28;20986;-43
2022/03/06 07:17:57;;;;;;;7.50;5.90;;;3.60;53.00;;;;;;5018521;28;20487;-43
2022/03/06 07:20:25;;;;;;;7.70;6.03;;;3.60;53.60;;;;;;5019968;28;20473;-43
2022/03/06 07:22:52;;;;;;;9.27;5.40;;;3.70;53.60;;;;;;5016205;28;20547;-43
2022/03/06 07:25:19;;;;;;;10.60;8.53;;;3.70;53.00;;;;;;5018175;28;20471;-43
2022/03/06 07:27:47;;;;;;;8.17;5.73;;;3.70;53.10;;;;;;5020759;28;20867;-43
2022/03/06 07:30:14;;;;;;;11.33;6.37;;;3.70;52.90;;;;;;5019760;28;20841;-43
2022/03/06 07:32:46;;;;;;;6.57;5.87;;;3.80;53.10;;;;;;5021583;28;20964;-43
2022/03/06 07:35:15;;;;;;;10.60;6.63;;;3.80;53.20;;;;;;5031932;28;21016;-43
2022/03/06 07:37:42;;;;;;;6.40;5.70;;;3.80;54.30;;;;;;5016773;28;20973;-43
2022/03/06 07:40:11;;;;;;;8.70;6.40;;;3.90;54.60;;;;;;5005085;28;20459;-43
2022/03/06 07:42:38;;;;;;;8.00;6.70;;;3.90;53.70;;;;;;5020638;28;20488;-43
2022/03/06 07:45:05;;;;;;;10.97;7.20;;;3.90;53.60;;;;;;5019468;28;20452;-43
2022/03/06 07:47:32;;;;;;;8.80;6.70;;;3.90;53.60;;;;;;5008083;28;20495;-43
2022/03/06 07:49:58;;;;;;;10.83;6.90;;;3.90;53.10;;;;;;5019341;28;20554;-43
2022/03/06 07:52:25;;;;;;;8.87;6.43;;;4.00;52.90;;;;;;5007874;28;20532;-43
2022/03/06 07:54:52;;;;;;;9.83;7.30;;;4.10;53.40;;;;;;5017819;28;20451;-43
2022/03/06 07:57:19;;;;;;;8.53;6.73;;;4.10;53.80;;;;;;5011001;28;20459;-43
2022/03/06 07:59:45;;;;;;;8.00;6.53;;;4.10;53.60;;;;;;5017740;28;21008;-43
2022/03/06 08:02:12;;;;;;;11.33;7.20;;;4.20;53.20;;;;;;5017150;28;20459;-43
2022/03/06 08:04:39;;;;;;;7.97;6.37;;;4.30;51.90;;;;;;5018972;28;20803;-43
2022/03/06 08:07:06;;;;;;;7.90;6.57;;;4.40;51.70;;;;;;5018468;28;20456;-43
2022/03/06 08:09:33;;;;;;;7.63;6.50;;;4.50;51.40;;;;;;5018196;28;20490;-43
2022/03/06 08:12:03;;;;;;;10.60;7.93;;;4.60;50.20;;;;;;5009323;28;20459;-43
2022/03/06 08:14:31;;;;;;;8.73;7.13;;;4.70;50.70;;;;;;5018488;28;20464;-43
2022/03/06 08:17:00;;;;;;;10.63;7.97;;;4.80;50.80;;;;;;5017327;28;20765;-42
2022/03/06 08:19:26;;;;;;;8.43;6.93;;;4.90;49.50;;;;;;5014516;28;20514;-43
2022/03/06 08:21:53;;;;;;;10.50;6.97;;;5.10;49.50;;;;;;5018918;28;21040;-43
2022/03/06 08:24:21;;;;;;;8.60;7.03;;;5.20;49.40;;;;;;5019320;28;20463;-43
2022/03/06 08:26:48;;;;;;;7.57;6.60;;;5.30;48.90;;;;;;5002877;28;20464;-43
2022/03/06 08:29:15;;;;;;;8.00;6.27;;;5.50;48.40;;;;;;5019976;28;21009;-43
2022/03/06 08:31:41;;;;;;;9.73;8.00;;;5.50;47.60;;;;;;5019418;28;20534;-43
2022/03/06 08:34:08;;;;;;;9.37;7.70;;;5.70;47.80;;;;;;5017318;28;20455;-43
2022/03/06 08:36:35;;;;;;;6.80;6.10;;;5.80;47.40;;;;;;5015843;28;20455;-43
2022/03/06 08:39:03;;;;;;;7.80;7.00;;;5.90;47.40;;;;;;5003330;28;20468;-43
2022/03/06 08:41:30;;;;;;;8.07;6.73;;;6.00;47.00;;;;;;5014215;28;20475;-43
2022/03/06 08:43:56;;;;;;;8.80;7.60;;;6.00;46.50;;;;;;5015016;28;20958;-43
2022/03/06 08:46:23;;;;;;;9.83;7.70;;;6.10;46.40;;;;;;5017627;28;20838;-43
2022/03/06 08:48:50;;;;;;;10.57;8.00;;;6.10;46.70;;;;;;5013505;28;20491;-43
2022/03/06 08:51:17;;;;;;;12.30;7.90;;;6.30;47.00;;;;;;5015493;28;20464;-43
2022/03/06 08:53:44;;;;;;;11.30;9.80;;;6.40;46.50;;;;;;5014748;28;20459;-43
2022/03/06 08:56:11;;;;;;;11.13;7.60;;;6.50;45.70;;;;;;5016445;28;20472;-43
2022/03/06 08:58:38;;;;;;;11.57;7.53;;;6.60;45.10;;;;;;5013347;28;20468;-43
2022/03/06 09:01:04;;;;;;;10.33;6.83;;;6.70;45.10;;;;;;5030896;28;20856;-43
2022/03/06 09:03:32;;;;;;;8.40;6.67;;;6.80;45.40;;;;;;5017131;28;20555;-43
2022/03/06 09:05:59;;;;;;;8.30;7.33;;;6.80;45.40;;;;;;5014359;28;20479;-43
2022/03/06 09:08:26;;;;;;;9.00;7.33;;;6.90;45.40;;;;;;5013812;28;20952;-43
2022/03/06 09:10:52;;;;;;;7.17;6.40;;;6.90;45.10;;;;;;5015580;28;20455;-43
2022/03/06 09:13:19;;;;;;;9.13;7.23;;;7.00;44.80;;;;;;5000481;28;20460;-43
2022/03/06 09:15:46;;;;;;;8.93;7.30;;;7.00;45.20;;;;;;5013800;28;20453;-43
2022/03/06 09:18:12;;;;;;;11.13;7.40;;;7.00;45.40;;;;;;5019188;28;20453;-43
2022/03/06 09:20:39;;;;;;;10.83;8.23;;;7.00;45.20;;;;;;5017398;28;20663;-43
2022/03/06 09:23:08;;;;;;;8.03;6.10;;;7.00;44.60;;;;;;5014770;28;20449;-43
2022/03/06 09:25:36;;;;;;;12.33;7.53;;;7.10;45.20;;;;;;5026215;28;20496;-43
2022/03/06 09:28:03;;;;;;;9.47;7.87;;;7.10;44.80;;;;;;5013387;28;20941;-43
2022/03/06 09:30:30;;;;;;;7.43;6.17;;;7.10;43.70;;;;;;5014777;28;20460;-43
2022/03/06 09:33:00;;;;;;;7.90;7.10;;;7.10;43.20;;;;;;5019949;28;20962;-43
2022/03/06 09:35:27;;;;;;;11.30;8.47;;;7.20;43.60;;;;;;5016887;28;20475;-43
2022/03/06 09:37:54;;;;;;;9.57;7.03;;;7.20;43.90;;;;;;5015483;28;20461;-43
2022/03/06 09:40:21;;;;;;;8.50;7.30;;;7.20;44.20;;;;;;5014600;28;20460;-43
2022/03/06 09:42:48;;;;;;;11.60;7.30;;;7.20;43.70;;;;;;5016570;28;20452;-43
2022/03/06 09:45:16;;;;;;;10.40;7.20;;;7.30;43.10;;;;;;5005799;28;20471;-43
2022/03/06 09:47:44;;;;;;;8.90;7.33;;;7.40;42.50;;;;;;5015446;28;20479;-43
2022/03/06 09:50:13;;;;;;;10.93;8.77;;;7.40;41.80;;;;;;5018319;28;20487;-43
2022/03/06 09:52:40;;;;;;;11.73;7.10;;;7.40;42.80;;;;;;5019500;28;20813;-43
2022/03/06 09:55:08;;;;;;;14.13;8.37;;;7.50;43.50;;;;;;5015031;28;20539;-43
2022/03/06 09:57:35;;;;;;;10.00;8.33;;;7.60;42.50;;;;;;5014595;28;20834;-43
2022/03/06 10:00:05;;;;;;;9.17;6.30;;;7.80;41.60;;;;;;5016838;28;20487;-43
2022/03/06 10:02:32;;;;;;;8.30;7.50;;;7.90;40.70;;;;;;5013005;28;20912;-43
2022/03/06 10:04:59;;;;;;;7.17;6.47;;;7.80;39.60;;;;;;5017597;28;20965;-43
2022/03/06 10:07:25;;;;;;;7.40;6.13;;;7.80;39.80;;;;;;5016393;28;20878;-43
2022/03/06 10:09:54;;;;;;;7.33;6.50;;;7.70;40.80;;;;;;5014968;28;20493;-43
2022/03/06 10:12:29;;;;;;;7.10;6.50;;;7.70;41.70;;;;;;5011952;28;20547;-43
2022/03/06 10:15:03;;;;;;;6.83;6.07;;;7.60;41.60;;;;;;5012832;28;20468;-42
2022/03/06 10:17:32;;;;;;;6.17;5.50;;;7.60;40.10;;;;;;5012742;28;20482;-42
2022/03/06 10:20:05;;;;;;;7.57;6.87;;;7.70;38.60;;;;;;5016503;28;20512;-42
2022/03/06 10:22:37;;;;;;;8.50;7.27;;;7.90;38.40;;;;;;5011908;28;20847;-42
2022/03/06 10:25:16;;;;;;;6.47;5.87;;;8.20;38.60;;;;;;5009248;28;20543;-42
2022/03/06 10:27:59;;;;;;;7.47;5.53;;;8.40;38.30;;;;;;4998478;28;20499;-42
2022/03/06 10:30:35;;;;;;;8.03;6.80;;;8.60;37.60;;;;;;5018055;28;21292;-42
2022/03/06 10:33:21;;;;;;;10.00;8.57;;;8.80;38.10;;;;;;5021871;28;20463;-42
2022/03/06 10:35:55;;;;;;;9.20;7.30;;;9.10;37.60;;;;;;5017916;28;20467;-43
2022/03/06 10:38:23;;;;;;;8.60;7.80;;;9.50;37.80;;;;;;5023062;28;20476;-43
2022/03/06 10:40:50;;;;;;;10.50;7.10;;;9.90;36.70;;;;;;5017621;28;20547;-43
2022/03/06 10:43:21;;;;;;;8.57;7.77;;;10.20;35.90;;;;;;5017448;28;20471;-43
2022/03/06 10:45:50;;;;;;;8.63;7.70;;;10.40;34.90;;;;;;5019797;28;20466;-43
2022/03/06 10:48:18;;;;;;;7.47;6.60;;;10.60;35.30;;;;;;5005200;28;20490;-42
2022/03/06 10:50:44;;;;;;;13.57;7.70;;;10.80;34.50;;;;;;5018520;28;20447;-43
2022/03/06 10:53:22;;;;;;;11.03;9.33;;;10.80;34.00;;;;;;5015728;28;20464;-43
2022/03/06 10:55:50;;;;;;;8.13;7.07;;;10.90;35.70;;;;;;5020221;28;20452;-43
2022/03/06 10:58:18;;;;;;;7.40;6.70;;;11.10;35.20;;;;;;5017355;28;20459;-43
2022/03/06 11:00:46;;;;;;;11.10;9.50;;;11.30;34.60;;;;;;5009724;28;21002;-43
2022/03/06 11:03:14;;;;;;;7.93;7.13;;;11.40;35.50;;;;;;5016659;28;20520;-43
2022/03/06 11:05:43;;;;;;;10.57;9.47;;;11.40;33.20;;;;;;5019718;28;20627;-43
2022/03/06 11:08:14;;;;;;;6.93;6.23;;;11.50;33.90;;;;;;5019133;28;20463;-43
2022/03/06 11:10:42;;;;;;;13.33;9.83;;;11.50;33.30;;;;;;5018847;28;20453;-43
2022/03/06 11:13:14;;;;;;;12.03;9.60;;;11.60;34.20;;;;;;5020535;28;20452;-43
2022/03/06 11:15:41;;;;;;;9.20;7.43;;;11.80;34.40;;;;;;5003242;28;21027;-43
2022/03/06 11:18:08;;;;;;;9.23;7.50;;;11.80;33.70;;;;;;5002380;28;20482;-43
2022/03/06 11:20:38;;;;;;;8.47;7.63;;;11.80;33.00;;;;;;5022156;28;20455;-43
2022/03/06 11:23:34;;;;;;;11.07;7.70;;;11.80;33.20;;;;;;5014106;28;20455;-43
2022/03/06 11:26:10;;;;;;;10.20;8.60;;;11.90;32.60;;;;;;5015126;28;21041;-43
2022/03/06 11:28:43;;;;;;;12.60;10.13;;;11.90;32.40;;;;;;5015497;28;20483;-43
2022/03/06 11:31:10;;;;;;;7.63;6.90;;;11.80;32.50;;;;;;5015642;28;20490;-43
2022/03/06 11:33:55;;;;;;;11.93;9.10;;;11.80;32.40;;;;;;5018782;28;20470;-43
2022/03/06 11:36:25;;;;;;;10.60;9.13;;;11.90;32.50;;;;;;5011389;28;20470;-43
2022/03/06 11:38:54;;;;;;;9.77;7.50;;;11.90;33.10;;;;;;5016507;28;20875;-43
2022/03/06 11:41:23;;;;;;;10.97;7.80;;;12.00;32.90;;;;;;5034028;28;20459;-43
2022/03/06 11:43:51;;;;;;;9.20;7.10;;;12.00;32.50;;;;;;5018468;28;20468;-43
2022/03/06 11:46:20;;;;;;;10.07;8.20;;;12.00;32.60;;;;;;5016716;28;21093;-43
2022/03/06 11:48:49;;;;;;;10.00;8.90;;;12.00;33.50;;;;;;5020297;28;20491;-43
2022/03/06 11:51:17;;;;;;;8.30;7.00;;;11.90;32.00;;;;;;5014540;28;20461;-43
2022/03/06 11:54:06;;;;;;;7.80;7.00;;;11.80;32.10;;;;;;5020092;28;20463;-43
2022/03/06 11:56:39;;;;;;;7.83;7.10;;;11.70;32.50;;;;;;5016430;28;20883;-43
2022/03/06 11:59:19;;;;;;;7.93;7.13;;;11.70;32.60;;;;;;5022038;28;20449;-43
2022/03/06 12:01:51;;;;;;;8.33;7.30;;;11.50;32.40;;;;;;5013764;28;20466;-43
2022/03/06 12:04:30;;;;;;;7.70;6.70;;;11.40;32.90;;;;;;5023126;28;20464;-43
2022/03/06 12:07:08;;;;;;;9.73;6.60;;;11.20;33.10;;;;;;5003459;28;21167;-43
2022/03/06 12:09:39;;;;;;;7.80;7.00;;;11.20;33.90;;;;;;5018161;28;20514;-43
2022/03/06 12:12:15;;;;;;;7.63;6.83;;;11.20;33.50;;;;;;5032406;28;20467;-43
2022/03/06 12:14:53;;;;;;;8.40;7.50;;;11.00;33.30;;;;;;5019153;28;20921;-43
2022/03/06 12:17:32;;;;;;;10.07;8.30;;;10.90;34.10;;;;;;5013994;28;20550;-43
2022/03/06 12:19:59;;;;;;;9.63;7.70;;;10.90;34.20;;;;;;5015693;28;20498;-43
2022/03/06 12:22:28;;;;;;;8.43;6.90;;;10.90;34.60;;;;;;5015778;28;20453;-43
2022/03/06 12:25:04;;;;;;;9.23;8.27;;;10.90;36.10;;;;;;5021425;28;20472;-43
2022/03/06 12:27:31;;;;;;;9.40;7.93;;;11.00;35.20;;;;;;5016018;28;20822;-42
2022/03/06 12:29:59;;;;;;;8.33;7.53;;;10.90;34.20;;;;;;5000689;28;20480;-42
2022/03/06 12:32:29;;;;;;;8.27;6.90;;;10.80;34.60;;;;;;5031770;28;22016;-42
2022/03/06 12:35:09;;;;;;;7.60;6.90;;;10.80;34.70;;;;;;5013070;28;20462;-42
2022/03/06 12:37:40;;;;;;;8.80;7.93;;;10.80;35.70;;;;;;5009280;28;20456;-42
2022/03/06 12:40:18;;;;;;;10.83;7.10;;;10.80;35.00;;;;;;5001131;28;20849;-43
2022/03/06 12:42:49;;;;;;;7.90;7.10;;;10.90;35.50;;;;;;4998289;28;20460;-43
2022/03/06 12:45:18;;;;;;;8.43;7.57;;;11.10;36.30;;;;;;5002820;28;20464;-42
2022/03/06 12:47:47;;;;;;;7.30;6.60;;;11.10;35.60;;;;;;5024996;28;20562;-43
2022/03/06 12:50:17;;;;;;;13.63;8.00;;;11.20;35.00;;;;;;5014337;28;20490;-42
2022/03/06 12:52:45;;;;;;;7.50;6.07;;;11.20;34.10;;;;;;5015115;28;20866;-42
2022/03/06 12:55:17;;;;;;;8.23;7.13;;;11.20;36.00;;;;;;5018409;28;20460;-42